sensor_id;sensor_type;location;lat;lon;timestamp;P1;durP1;ratioP1;P2;durP2;ratioP2
18804;SDS011;9530;48.930;9.526;2022-09-12T00:00:25;5.80;;;5.23;;
18804;SDS011;9530;48.930;9.526;2022-09-12T00:02:52;7.73;;;5.10;;
18804;SDS011;9530;48.930;9.526;2022-09-12T00:05:20;6.40;;;5.50;;
18804;SDS011;9530;48.930;9.526;2022-09-12T00:07:48;5.80;;;5.30;;
18804;SDS011;9530;48.930;9.526;2022-09-12T00:10:16;6.20;;;5.50;;
18804;SDS011;9530;48.930;9.526;2022-09-12T00:12:43;5.83;;;5.23;;
18804;SDS011;9530;48.930;9.526;2022-09-12T00:15:10;9.33;;;5.53;;
18804;SDS011;9530;48.930;9.526;2022-09-12T00:17:37;5.50;;;4.80;;
18804;SDS011;9530;48.930;9.526;2022-09-12T00:20:05;5.77;;;5.27;;
18804;SDS011;9530;48.930;9.526;2022-09-12T00:22:33;7.20;;;5.40;;
18804;SDS011;9530;48.930;9.526;2022-09-12T00:24:59;9.60;;;5.23;;
18804;SDS011;9530;48.930;9.526;2022-09-12T00:27:28;6.27;;;5.50;;
18804;SDS011;9530;48.930;9.526;2022-09-12T00:29:54;5.53;;;5.03;;
18804;SDS011;9530;48.930;9.526;2022-09-12T00:32:21;5.70;;;5.20;;
18804;SDS011;9530;48.930;9.526;2022-09-12T00:34:48;9.97;;;5.73;;
18804;SDS011;9530;48.930;9.526;2022-09-12T00:37:14;5.63;;;5.13;;
18804;SDS011;9530;48.930;9.526;2022-09-12T00:39:41;5.97;;;5.37;;
18804;SDS011;9530;48.930;9.526;2022-09-12T00:42:08;5.77;;;5.27;;
18804;SDS011;9530;48.930;9.526;2022-09-12T00:44:47;7.30;;;5.30;;
18804;SDS011;9530;48.930;9.526;2022-09-12T00:47:17;9.30;;;5.43;;
18804;SDS011;9530;48.930;9.526;2022-09-12T00:49:48;5.90;;;5.33;;
18804;SDS011;9530;48.930;9.526;2022-09-12T00:52:18;8.93;;;5.87;;
18804;SDS011;9530;48.930;9.526;2022-09-12T00:54:51;6.60;;;5.37;;
18804;SDS011;9530;48.930;9.526;2022-09-12T00:57:22;6.27;;;5.00;;
18804;SDS011;9530;48.930;9.526;2022-09-12T00:59:55;9.77;;;5.33;;
18804;SDS011;9530;48.930;9.526;2022-09-12T01:02:26;6.00;;;5.40;;
18804;SDS011;9530;48.930;9.526;2022-09-12T01:04:53;6.60;;;5.43;;
18804;SDS011;9530;48.930;9.526;2022-09-12T01:07:20;5.90;;;5.30;;
18804;SDS011;9530;48.930;9.526;2022-09-12T01:09:48;6.33;;;5.73;;
18804;SDS011;9530;48.930;9.526;2022-09-12T01:12:14;9.83;;;5.73;;
18804;SDS011;9530;48.930;9.526;2022-09-12T01:14:42;6.90;;;5.87;;
18804;SDS011;9530;48.930;9.526;2022-09-12T01:17:11;5.73;;;5.20;;
18804;SDS011;9530;48.930;9.526;2022-09-12T01:19:54;6.20;;;5.60;;
18804;SDS011;9530;48.930;9.526;2022-09-12T01:22:39;7.07;;;5.47;;
18804;SDS011;9530;48.930;9.526;2022-09-12T01:25:27;7.43;;;5.67;;
18804;SDS011;9530;48.930;9.526;2022-09-12T01:28:06;7.60;;;5.70;;
18804;SDS011;9530;48.930;9.526;2022-09-12T01:30:49;6.33;;;5.33;;
18804;SDS011;9530;48.930;9.526;2022-09-12T01:33:29;7.80;;;5.77;;
18804;SDS011;9530;48.930;9.526;2022-09-12T01:36:10;6.87;;;5.43;;
18804;SDS011;9530;48.930;9.526;2022-09-12T01:38:49;6.57;;;5.13;;
18804;SDS011;9530;48.930;9.526;2022-09-12T01:41:24;6.50;;;5.50;;
18804;SDS011;9530;48.930;9.526;2022-09-12T01:43:57;9.03;;;5.83;;
18804;SDS011;9530;48.930;9.526;2022-09-12T01:46:32;7.67;;;5.57;;
18804;SDS011;9530;48.930;9.526;2022-09-12T01:49:04;6.67;;;5.80;;
18804;SDS011;9530;48.930;9.526;2022-09-12T01:51:36;5.90;;;5.40;;
18804;SDS011;9530;48.930;9.526;2022-09-12T01:54:07;8.67;;;5.50;;
18804;SDS011;9530;48.930;9.526;2022-09-12T01:56:38;8.20;;;5.23;;
18804;SDS011;9530;48.930;9.526;2022-09-12T01:59:09;8.07;;;5.37;;
18804;SDS011;9530;48.930;9.526;2022-09-12T02:01:43;5.63;;;4.97;;
18804;SDS011;9530;48.930;9.526;2022-09-12T02:04:15;5.73;;;5.23;;
18804;SDS011;9530;48.930;9.526;2022-09-12T02:06:47;6.60;;;6.00;;
18804;SDS011;9530;48.930;9.526;2022-09-12T02:09:16;7.73;;;5.40;;
18804;SDS011;9530;48.930;9.526;2022-09-12T02:11:46;9.17;;;5.53;;
18804;SDS011;9530;48.930;9.526;2022-09-12T02:14:19;6.03;;;5.40;;
18804;SDS011;9530;48.930;9.526;2022-09-12T02:16:50;6.60;;;5.40;;
18804;SDS011;9530;48.930;9.526;2022-09-12T02:19:21;9.40;;;6.00;;
18804;SDS011;9530;48.930;9.526;2022-09-12T02:21:50;7.93;;;5.83;;
18804;SDS011;9530;48.930;9.526;2022-09-12T02:24:19;5.80;;;5.27;;
18804;SDS011;9530;48.930;9.526;2022-09-12T02:26:48;6.30;;;5.33;;
18804;SDS011;9530;48.930;9.526;2022-09-12T02:29:17;8.83;;;5.37;;
18804;SDS011;9530;48.930;9.526;2022-09-12T02:31:45;7.70;;;5.60;;
18804;SDS011;9530;48.930;9.526;2022-09-12T02:34:17;6.60;;;5.70;;
18804;SDS011;9530;48.930;9.526;2022-09-12T02:36:57;5.77;;;5.23;;
18804;SDS011;9530;48.930;9.526;2022-09-12T02:39:30;8.23;;;5.20;;
18804;SDS011;9530;48.930;9.526;2022-09-12T02:41:58;12.00;;;5.47;;
18804;SDS011;9530;48.930;9.526;2022-09-12T02:44:27;5.47;;;4.97;;
18804;SDS011;9530;48.930;9.526;2022-09-12T02:46:56;6.03;;;5.43;;
18804;SDS011;9530;48.930;9.526;2022-09-12T02:49:28;6.63;;;5.23;;
18804;SDS011;9530;48.930;9.526;2022-09-12T02:51:54;6.10;;;5.50;;
18804;SDS011;9530;48.930;9.526;2022-09-12T02:54:21;6.47;;;5.50;;
18804;SDS011;9530;48.930;9.526;2022-09-12T02:56:49;7.70;;;5.17;;
18804;SDS011;9530;48.930;9.526;2022-09-12T02:59:16;8.40;;;5.60;;
18804;SDS011;9530;48.930;9.526;2022-09-12T03:01:52;8.60;;;6.10;;
18804;SDS011;9530;48.930;9.526;2022-09-12T03:04:39;9.27;;;5.20;;
18804;SDS011;9530;48.930;9.526;2022-09-12T03:07:15;6.47;;;5.27;;
18804;SDS011;9530;48.930;9.526;2022-09-12T03:09:52;7.43;;;5.50;;
18804;SDS011;9530;48.930;9.526;2022-09-12T03:12:32;6.87;;;5.77;;
18804;SDS011;9530;48.930;9.526;2022-09-12T03:15:17;6.60;;;5.60;;
18804;SDS011;9530;48.930;9.526;2022-09-12T03:17:56;7.00;;;6.00;;
18804;SDS011;9530;48.930;9.526;2022-09-12T03:20:35;8.60;;;5.33;;
18804;SDS011;9530;48.930;9.526;2022-09-12T03:23:12;7.40;;;5.43;;
18804;SDS011;9530;48.930;9.526;2022-09-12T03:25:47;10.30;;;5.20;;
18804;SDS011;9530;48.930;9.526;2022-09-12T03:28:17;6.43;;;5.80;;
18804;SDS011;9530;48.930;9.526;2022-09-12T03:30:48;6.10;;;5.50;;
18804;SDS011;9530;48.930;9.526;2022-09-12T03:33:18;6.00;;;4.83;;
18804;SDS011;9530;48.930;9.526;2022-09-12T03:35:48;7.13;;;5.13;;
18804;SDS011;9530;48.930;9.526;2022-09-12T03:38:16;7.43;;;4.97;;
18804;SDS011;9530;48.930;9.526;2022-09-12T03:40:43;11.43;;;5.60;;
18804;SDS011;9530;48.930;9.526;2022-09-12T03:43:10;9.37;;;5.47;;
18804;SDS011;9530;48.930;9.526;2022-09-12T03:45:37;5.80;;;5.30;;
18804;SDS011;9530;48.930;9.526;2022-09-12T03:48:05;6.10;;;5.00;;
18804;SDS011;9530;48.930;9.526;2022-09-12T03:50:32;8.00;;;4.77;;
18804;SDS011;9530;48.930;9.526;2022-09-12T03:53:00;8.80;;;5.03;;
18804;SDS011;9530;48.930;9.526;2022-09-12T03:55:27;10.77;;;5.10;;
18804;SDS011;9530;48.930;9.526;2022-09-12T03:57:55;13.47;;;5.20;;
18804;SDS011;9530;48.930;9.526;2022-09-12T04:00:22;5.97;;;5.37;;
18804;SDS011;9530;48.930;9.526;2022-09-12T04:02:52;6.00;;;5.40;;
18804;SDS011;9530;48.930;9.526;2022-09-12T04:05:20;6.87;;;6.13;;
18804;SDS011;9530;48.930;9.526;2022-09-12T04:07:46;9.03;;;6.07;;
18804;SDS011;9530;48.930;9.526;2022-09-12T04:10:14;7.47;;;5.10;;
18804;SDS011;9530;48.930;9.526;2022-09-12T04:12:41;6.13;;;5.30;;
18804;SDS011;9530;48.930;9.526;2022-09-12T04:15:08;12.93;;;9.67;;
18804;SDS011;9530;48.930;9.526;2022-09-12T04:17:35;17.70;;;12.83;;
18804;SDS011;9530;48.930;9.526;2022-09-12T04:20:02;21.43;;;14.47;;
18804;SDS011;9530;48.930;9.526;2022-09-12T04:22:29;15.47;;;12.27;;
18804;SDS011;9530;48.930;9.526;2022-09-12T04:24:57;15.50;;;13.37;;
18804;SDS011;9530;48.930;9.526;2022-09-12T04:27:25;15.93;;;13.53;;
18804;SDS011;9530;48.930;9.526;2022-09-12T04:29:52;15.43;;;12.93;;
18804;SDS011;9530;48.930;9.526;2022-09-12T04:32:19;15.37;;;12.90;;
18804;SDS011;9530;48.930;9.526;2022-09-12T04:34:46;13.73;;;12.13;;
18804;SDS011;9530;48.930;9.526;2022-09-12T04:37:13;14.83;;;12.27;;
18804;SDS011;9530;48.930;9.526;2022-09-12T04:39:40;15.77;;;11.67;;
18804;SDS011;9530;48.930;9.526;2022-09-12T04:42:07;14.70;;;10.17;;
18804;SDS011;9530;48.930;9.526;2022-09-12T04:44:35;12.17;;;10.13;;
18804;SDS011;9530;48.930;9.526;2022-09-12T04:47:02;15.50;;;10.90;;
18804;SDS011;9530;48.930;9.526;2022-09-12T04:49:29;15.37;;;10.40;;
18804;SDS011;9530;48.930;9.526;2022-09-12T04:51:55;10.07;;;8.97;;
18804;SDS011;9530;48.930;9.526;2022-09-12T04:54:22;11.30;;;9.30;;
18804;SDS011;9530;48.930;9.526;2022-09-12T04:56:49;10.03;;;8.77;;
18804;SDS011;9530;48.930;9.526;2022-09-12T04:59:17;10.67;;;7.07;;
18804;SDS011;9530;48.930;9.526;2022-09-12T05:01:47;7.60;;;6.80;;
18804;SDS011;9530;48.930;9.526;2022-09-12T05:04:14;7.47;;;6.63;;
18804;SDS011;9530;48.930;9.526;2022-09-12T05:06:41;10.73;;;6.90;;
18804;SDS011;9530;48.930;9.526;2022-09-12T05:09:09;8.53;;;6.60;;
18804;SDS011;9530;48.930;9.526;2022-09-12T05:11:39;9.87;;;6.53;;
18804;SDS011;9530;48.930;9.526;2022-09-12T05:14:07;7.23;;;6.53;;
18804;SDS011;9530;48.930;9.526;2022-09-12T05:16:34;10.87;;;6.40;;
18804;SDS011;9530;48.930;9.526;2022-09-12T05:19:02;7.83;;;6.97;;
18804;SDS011;9530;48.930;9.526;2022-09-12T05:21:29;7.53;;;6.73;;
18804;SDS011;9530;48.930;9.526;2022-09-12T05:23:56;7.70;;;6.23;;
18804;SDS011;9530;48.930;9.526;2022-09-12T05:26:24;8.23;;;6.77;;
18804;SDS011;9530;48.930;9.526;2022-09-12T05:28:51;7.23;;;6.30;;
18804;SDS011;9530;48.930;9.526;2022-09-12T05:31:19;6.70;;;6.00;;
18804;SDS011;9530;48.930;9.526;2022-09-12T05:33:48;9.03;;;6.40;;
18804;SDS011;9530;48.930;9.526;2022-09-12T05:36:17;12.20;;;7.20;;
18804;SDS011;9530;48.930;9.526;2022-09-12T05:38:45;6.33;;;5.73;;
18804;SDS011;9530;48.930;9.526;2022-09-12T05:41:13;9.03;;;6.63;;
18804;SDS011;9530;48.930;9.526;2022-09-12T05:43:41;6.90;;;6.20;;
18804;SDS011;9530;48.930;9.526;2022-09-12T05:46:10;6.30;;;5.70;;
18804;SDS011;9530;48.930;9.526;2022-09-12T05:48:38;9.17;;;6.53;;
18804;SDS011;9530;48.930;9.526;2022-09-12T05:51:06;6.43;;;5.83;;
18804;SDS011;9530;48.930;9.526;2022-09-12T05:53:36;7.40;;;5.97;;
18804;SDS011;9530;48.930;9.526;2022-09-12T05:56:05;10.63;;;5.87;;
18804;SDS011;9530;48.930;9.526;2022-09-12T05:58:33;6.03;;;5.43;;
18804;SDS011;9530;48.930;9.526;2022-09-12T06:01:01;5.50;;;5.00;;
18804;SDS011;9530;48.930;9.526;2022-09-12T06:03:28;7.53;;;5.37;;
18804;SDS011;9530;48.930;9.526;2022-09-12T06:05:55;6.63;;;4.97;;
18804;SDS011;9530;48.930;9.526;2022-09-12T06:08:22;9.23;;;6.10;;
18804;SDS011;9530;48.930;9.526;2022-09-12T06:10:50;8.07;;;5.77;;
18804;SDS011;9530;48.930;9.526;2022-09-12T06:13:17;6.40;;;5.30;;
18804;SDS011;9530;48.930;9.526;2022-09-12T06:15:43;5.73;;;5.17;;
18804;SDS011;9530;48.930;9.526;2022-09-12T06:18:10;7.00;;;6.03;;
18804;SDS011;9530;48.930;9.526;2022-09-12T06:20:37;7.60;;;6.30;;
18804;SDS011;9530;48.930;9.526;2022-09-12T06:23:03;9.57;;;6.07;;
18804;SDS011;9530;48.930;9.526;2022-09-12T06:25:30;7.10;;;6.40;;
18804;SDS011;9530;48.930;9.526;2022-09-12T06:27:58;6.67;;;5.97;;
18804;SDS011;9530;48.930;9.526;2022-09-12T06:30:25;7.70;;;5.90;;
18804;SDS011;9530;48.930;9.526;2022-09-12T06:32:52;7.57;;;6.33;;
18804;SDS011;9530;48.930;9.526;2022-09-12T06:35:20;7.63;;;6.57;;
18804;SDS011;9530;48.930;9.526;2022-09-12T06:37:47;7.33;;;6.13;;
18804;SDS011;9530;48.930;9.526;2022-09-12T06:40:14;7.20;;;6.27;;
18804;SDS011;9530;48.930;9.526;2022-09-12T06:42:40;8.43;;;6.27;;
18804;SDS011;9530;48.930;9.526;2022-09-12T06:45:09;7.40;;;6.30;;
18804;SDS011;9530;48.930;9.526;2022-09-12T06:47:36;8.73;;;6.43;;
18804;SDS011;9530;48.930;9.526;2022-09-12T06:50:03;8.50;;;6.47;;
18804;SDS011;9530;48.930;9.526;2022-09-12T06:52:30;8.00;;;6.73;;
18804;SDS011;9530;48.930;9.526;2022-09-12T06:54:57;8.33;;;6.80;;
18804;SDS011;9530;48.930;9.526;2022-09-12T06:57:24;10.17;;;7.40;;
18804;SDS011;9530;48.930;9.526;2022-09-12T06:59:54;7.87;;;6.90;;
18804;SDS011;9530;48.930;9.526;2022-09-12T07:02:22;7.20;;;6.50;;
18804;SDS011;9530;48.930;9.526;2022-09-12T07:04:49;9.93;;;7.23;;
18804;SDS011;9530;48.930;9.526;2022-09-12T07:07:16;9.07;;;6.67;;
18804;SDS011;9530;48.930;9.526;2022-09-12T07:09:42;8.87;;;6.57;;
18804;SDS011;9530;48.930;9.526;2022-09-12T07:12:09;6.57;;;5.70;;
18804;SDS011;9530;48.930;9.526;2022-09-12T07:14:36;6.30;;;5.33;;
18804;SDS011;9530;48.930;9.526;2022-09-12T07:17:03;6.80;;;5.80;;
18804;SDS011;9530;48.930;9.526;2022-09-12T07:19:31;6.30;;;5.70;;
18804;SDS011;9530;48.930;9.526;2022-09-12T07:21:57;10.40;;;5.80;;
18804;SDS011;9530;48.930;9.526;2022-09-12T07:24:24;6.47;;;5.57;;
18804;SDS011;9530;48.930;9.526;2022-09-12T07:26:51;7.90;;;5.73;;
18804;SDS011;9530;48.930;9.526;2022-09-12T07:29:17;6.53;;;5.90;;
18804;SDS011;9530;48.930;9.526;2022-09-12T07:31:44;7.77;;;6.17;;
18804;SDS011;9530;48.930;9.526;2022-09-12T07:34:11;7.13;;;5.50;;
18804;SDS011;9530;48.930;9.526;2022-09-12T07:36:40;6.20;;;5.60;;
18804;SDS011;9530;48.930;9.526;2022-09-12T07:39:06;6.77;;;6.00;;
18804;SDS011;9530;48.930;9.526;2022-09-12T07:41:33;8.83;;;5.80;;
18804;SDS011;9530;48.930;9.526;2022-09-12T07:44:00;6.50;;;5.60;;
18804;SDS011;9530;48.930;9.526;2022-09-12T07:46:28;6.17;;;5.53;;
18804;SDS011;9530;48.930;9.526;2022-09-12T07:48:56;9.27;;;5.87;;
18804;SDS011;9530;48.930;9.526;2022-09-12T07:51:24;6.53;;;5.80;;
18804;SDS011;9530;48.930;9.526;2022-09-12T07:53:54;6.20;;;5.60;;
18804;SDS011;9530;48.930;9.526;2022-09-12T07:56:21;7.43;;;5.30;;
18804;SDS011;9530;48.930;9.526;2022-09-12T07:58:48;7.70;;;5.50;;
18804;SDS011;9530;48.930;9.526;2022-09-12T08:01:15;7.60;;;5.70;;
18804;SDS011;9530;48.930;9.526;2022-09-12T08:03:44;7.90;;;5.80;;
18804;SDS011;9530;48.930;9.526;2022-09-12T08:06:13;7.83;;;5.47;;
18804;SDS011;9530;48.930;9.526;2022-09-12T08:08:41;6.33;;;5.57;;
18804;SDS011;9530;48.930;9.526;2022-09-12T08:11:10;5.30;;;4.80;;
18804;SDS011;9530;48.930;9.526;2022-09-12T08:13:40;6.63;;;4.33;;
18804;SDS011;9530;48.930;9.526;2022-09-12T08:16:09;5.70;;;5.10;;
18804;SDS011;9530;48.930;9.526;2022-09-12T08:18:37;6.27;;;4.90;;
18804;SDS011;9530;48.930;9.526;2022-09-12T08:21:05;5.33;;;4.83;;
18804;SDS011;9530;48.930;9.526;2022-09-12T08:23:34;5.53;;;5.00;;
18804;SDS011;9530;48.930;9.526;2022-09-12T08:26:02;4.47;;;4.07;;
18804;SDS011;9530;48.930;9.526;2022-09-12T08:28:32;5.60;;;4.13;;
18804;SDS011;9530;48.930;9.526;2022-09-12T08:31:00;4.50;;;3.83;;
18804;SDS011;9530;48.930;9.526;2022-09-12T08:33:28;8.10;;;3.97;;
18804;SDS011;9530;48.930;9.526;2022-09-12T08:36:01;5.70;;;4.10;;
18804;SDS011;9530;48.930;9.526;2022-09-12T08:38:29;4.03;;;3.63;;
18804;SDS011;9530;48.930;9.526;2022-09-12T08:40:57;3.70;;;3.40;;
18804;SDS011;9530;48.930;9.526;2022-09-12T08:43:32;3.80;;;3.40;;
18804;SDS011;9530;48.930;9.526;2022-09-12T08:46:14;4.00;;;3.20;;
18804;SDS011;9530;48.930;9.526;2022-09-12T08:48:47;3.80;;;3.20;;
18804;SDS011;9530;48.930;9.526;2022-09-12T08:51:15;3.47;;;3.17;;
18804;SDS011;9530;48.930;9.526;2022-09-12T08:53:45;3.47;;;2.90;;
18804;SDS011;9530;48.930;9.526;2022-09-12T08:56:14;2.90;;;2.70;;
18804;SDS011;9530;48.930;9.526;2022-09-12T08:58:42;2.90;;;2.60;;
18804;SDS011;9530;48.930;9.526;2022-09-12T09:01:12;3.17;;;2.60;;
18804;SDS011;9530;48.930;9.526;2022-09-12T09:04:01;3.00;;;2.50;;
18804;SDS011;9530;48.930;9.526;2022-09-12T09:06:55;3.27;;;2.50;;
18804;SDS011;9530;48.930;9.526;2022-09-12T09:09:32;5.60;;;2.30;;
18804;SDS011;9530;48.930;9.526;2022-09-12T09:12:11;3.83;;;2.10;;
18804;SDS011;9530;48.930;9.526;2022-09-12T09:14:51;3.93;;;2.37;;
18804;SDS011;9530;48.930;9.526;2022-09-12T09:17:31;4.00;;;2.20;;
18804;SDS011;9530;48.930;9.526;2022-09-12T09:20:04;2.63;;;2.20;;
18804;SDS011;9530;48.930;9.526;2022-09-12T09:22:40;3.00;;;2.10;;
18804;SDS011;9530;48.930;9.526;2022-09-12T09:25:12;5.00;;;2.20;;
18804;SDS011;9530;48.930;9.526;2022-09-12T09:27:44;4.33;;;2.30;;
18804;SDS011;9530;48.930;9.526;2022-09-12T09:30:18;3.27;;;2.00;;
18804;SDS011;9530;48.930;9.526;2022-09-12T09:32:48;2.57;;;1.80;;
18804;SDS011;9530;48.930;9.526;2022-09-12T09:35:18;2.20;;;2.00;;
18804;SDS011;9530;48.930;9.526;2022-09-12T09:37:54;2.50;;;1.90;;
18804;SDS011;9530;48.930;9.526;2022-09-12T09:40:28;5.33;;;2.00;;
18804;SDS011;9530;48.930;9.526;2022-09-12T09:43:05;2.40;;;2.00;;
18804;SDS011;9530;48.930;9.526;2022-09-12T09:45:43;2.00;;;1.77;;
18804;SDS011;9530;48.930;9.526;2022-09-12T09:48:13;2.40;;;1.80;;
18804;SDS011;9530;48.930;9.526;2022-09-12T09:50:43;2.37;;;2.03;;
18804;SDS011;9530;48.930;9.526;2022-09-12T09:53:16;2.33;;;2.10;;
18804;SDS011;9530;48.930;9.526;2022-09-12T09:55:52;2.30;;;2.10;;
18804;SDS011;9530;48.930;9.526;2022-09-12T09:58:28;3.00;;;2.00;;
18804;SDS011;9530;48.930;9.526;2022-09-12T10:01:00;1.73;;;1.63;;
18804;SDS011;9530;48.930;9.526;2022-09-12T10:03:29;2.30;;;1.90;;
18804;SDS011;9530;48.930;9.526;2022-09-12T10:05:58;1.97;;;1.80;;
18804;SDS011;9530;48.930;9.526;2022-09-12T10:08:28;2.17;;;1.97;;
18804;SDS011;9530;48.930;9.526;2022-09-12T10:10:58;1.93;;;1.77;;
18804;SDS011;9530;48.930;9.526;2022-09-12T10:13:29;3.77;;;1.97;;
18804;SDS011;9530;48.930;9.526;2022-09-12T10:16:15;2.00;;;1.70;;
18804;SDS011;9530;48.930;9.526;2022-09-12T10:18:44;2.07;;;1.87;;
18804;SDS011;9530;48.930;9.526;2022-09-12T10:21:12;2.17;;;1.90;;
18804;SDS011;9530;48.930;9.526;2022-09-12T10:23:43;2.13;;;1.93;;
18804;SDS011;9530;48.930;9.526;2022-09-12T10:26:12;3.03;;;2.00;;
18804;SDS011;9530;48.930;9.526;2022-09-12T10:28:41;2.23;;;1.90;;
18804;SDS011;9530;48.930;9.526;2022-09-12T10:31:12;2.33;;;1.70;;
18804;SDS011;9530;48.930;9.526;2022-09-12T10:33:42;2.07;;;1.83;;
18804;SDS011;9530;48.930;9.526;2022-09-12T10:36:16;2.13;;;1.90;;
18804;SDS011;9530;48.930;9.526;2022-09-12T10:38:47;2.00;;;1.77;;
18804;SDS011;9530;48.930;9.526;2022-09-12T10:41:15;3.50;;;1.90;;
18804;SDS011;9530;48.930;9.526;2022-09-12T10:43:42;2.50;;;2.00;;
18804;SDS011;9530;48.930;9.526;2022-09-12T10:46:20;2.47;;;1.70;;
18804;SDS011;9530;48.930;9.526;2022-09-12T10:51:39;1.87;;;1.77;;
18804;SDS011;9530;48.930;9.526;2022-09-12T10:54:06;3.60;;;2.00;;
18804;SDS011;9530;48.930;9.526;2022-09-12T10:56:37;2.10;;;1.90;;
18804;SDS011;9530;48.930;9.526;2022-09-12T10:59:12;3.50;;;1.70;;
18804;SDS011;9530;48.930;9.526;2022-09-12T11:01:49;2.10;;;1.80;;
18804;SDS011;9530;48.930;9.526;2022-09-12T11:04:23;1.93;;;1.73;;
18804;SDS011;9530;48.930;9.526;2022-09-12T11:06:57;2.07;;;1.60;;
18804;SDS011;9530;48.930;9.526;2022-09-12T11:09:39;4.17;;;1.90;;
18804;SDS011;9530;48.930;9.526;2022-09-12T11:12:12;2.67;;;1.70;;
18804;SDS011;9530;48.930;9.526;2022-09-12T11:14:51;2.00;;;1.70;;
18804;SDS011;9530;48.930;9.526;2022-09-12T11:17:30;2.50;;;1.73;;
18804;SDS011;9530;48.930;9.526;2022-09-12T11:20:11;3.00;;;1.80;;
18804;SDS011;9530;48.930;9.526;2022-09-12T11:23:02;1.87;;;1.63;;
18804;SDS011;9530;48.930;9.526;2022-09-12T11:25:45;1.73;;;1.60;;
18804;SDS011;9530;48.930;9.526;2022-09-12T11:28:21;2.33;;;1.67;;
18804;SDS011;9530;48.930;9.526;2022-09-12T11:31:03;1.70;;;1.60;;
18804;SDS011;9530;48.930;9.526;2022-09-12T11:33:42;1.73;;;1.33;;
18804;SDS011;9530;48.930;9.526;2022-09-12T11:36:16;4.07;;;2.20;;
18804;SDS011;9530;48.930;9.526;2022-09-12T11:38:57;2.33;;;1.70;;
18804;SDS011;9530;48.930;9.526;2022-09-12T11:41:29;1.60;;;1.50;;
18804;SDS011;9530;48.930;9.526;2022-09-12T11:44:01;1.50;;;1.40;;
18804;SDS011;9530;48.930;9.526;2022-09-12T11:46:36;1.50;;;1.40;;
18804;SDS011;9530;48.930;9.526;2022-09-12T11:49:08;1.57;;;1.43;;
18804;SDS011;9530;48.930;9.526;2022-09-12T11:51:43;3.80;;;1.43;;
18804;SDS011;9530;48.930;9.526;2022-09-12T11:54:17;3.20;;;1.60;;
18804;SDS011;9530;48.930;9.526;2022-09-12T11:56:48;1.97;;;1.30;;
18804;SDS011;9530;48.930;9.526;2022-09-12T11:59:23;1.80;;;1.30;;
18804;SDS011;9530;48.930;9.526;2022-09-12T12:01:57;2.27;;;1.40;;
18804;SDS011;9530;48.930;9.526;2022-09-12T12:04:29;2.90;;;1.50;;
18804;SDS011;9530;48.930;9.526;2022-09-12T12:07:02;1.73;;;1.60;;
18804;SDS011;9530;48.930;9.526;2022-09-12T12:09:31;3.73;;;1.50;;
18804;SDS011;9530;48.930;9.526;2022-09-12T12:11:59;1.80;;;1.40;;
18804;SDS011;9530;48.930;9.526;2022-09-12T12:14:34;2.70;;;1.80;;
18804;SDS011;9530;48.930;9.526;2022-09-12T12:17:11;1.73;;;1.30;;
18804;SDS011;9530;48.930;9.526;2022-09-12T12:19:42;2.10;;;1.50;;
18804;SDS011;9530;48.930;9.526;2022-09-12T12:22:14;2.30;;;1.43;;
18804;SDS011;9530;48.930;9.526;2022-09-12T12:24:53;2.87;;;1.40;;
18804;SDS011;9530;48.930;9.526;2022-09-12T12:27:24;1.53;;;1.30;;
18804;SDS011;9530;48.930;9.526;2022-09-12T12:36:40;1.30;;;1.20;;
18804;SDS011;9530;48.930;9.526;2022-09-12T12:48:25;1.87;;;1.40;;
18804;SDS011;9530;48.930;9.526;2022-09-12T12:56:59;1.40;;;1.30;;
18804;SDS011;9530;48.930;9.526;2022-09-12T12:59:27;2.23;;;1.20;;
18804;SDS011;9530;48.930;9.526;2022-09-12T13:01:55;1.20;;;1.10;;
18804;SDS011;9530;48.930;9.526;2022-09-12T13:04:24;1.03;;;0.93;;
18804;SDS011;9530;48.930;9.526;2022-09-12T13:06:55;1.50;;;1.20;;
18804;SDS011;9530;48.930;9.526;2022-09-12T13:09:25;1.67;;;1.20;;
18804;SDS011;9530;48.930;9.526;2022-09-12T13:11:58;1.20;;;1.10;;
18804;SDS011;9530;48.930;9.526;2022-09-12T13:17:17;1.20;;;1.10;;
18804;SDS011;9530;48.930;9.526;2022-09-12T13:20:04;1.47;;;1.10;;
18804;SDS011;9530;48.930;9.526;2022-09-12T13:22:40;2.27;;;1.30;;
18804;SDS011;9530;48.930;9.526;2022-09-12T13:25:17;1.43;;;1.30;;
18804;SDS011;9530;48.930;9.526;2022-09-12T13:27:57;1.10;;;1.00;;
18804;SDS011;9530;48.930;9.526;2022-09-12T13:30:26;2.23;;;1.20;;
18804;SDS011;9530;48.930;9.526;2022-09-12T13:32:54;1.00;;;0.90;;
18804;SDS011;9530;48.930;9.526;2022-09-12T13:35:25;2.27;;;1.17;;
18804;SDS011;9530;48.930;9.526;2022-09-12T13:38:04;1.73;;;1.30;;
18804;SDS011;9530;48.930;9.526;2022-09-12T13:40:37;1.43;;;1.10;;
18804;SDS011;9530;48.930;9.526;2022-09-12T13:43:22;1.27;;;1.17;;
18804;SDS011;9530;48.930;9.526;2022-09-12T13:46:01;1.93;;;1.33;;
18804;SDS011;9530;48.930;9.526;2022-09-12T13:48:28;1.77;;;1.00;;
18804;SDS011;9530;48.930;9.526;2022-09-12T13:50:55;1.30;;;1.20;;
18804;SDS011;9530;48.930;9.526;2022-09-12T13:53:26;1.53;;;1.03;;
18804;SDS011;9530;48.930;9.526;2022-09-12T13:55:57;1.50;;;1.10;;
18804;SDS011;9530;48.930;9.526;2022-09-12T13:58:27;1.10;;;1.00;;
18804;SDS011;9530;48.930;9.526;2022-09-12T14:01:03;1.00;;;0.90;;
18804;SDS011;9530;48.930;9.526;2022-09-12T14:03:32;1.73;;;1.10;;
18804;SDS011;9530;48.930;9.526;2022-09-12T14:06:17;1.03;;;0.97;;
18804;SDS011;9530;48.930;9.526;2022-09-12T14:08:45;1.43;;;1.13;;
18804;SDS011;9530;48.930;9.526;2022-09-12T14:11:17;1.60;;;1.10;;
18804;SDS011;9530;48.930;9.526;2022-09-12T14:13:51;1.90;;;1.20;;
18804;SDS011;9530;48.930;9.526;2022-09-12T14:16:20;2.50;;;1.00;;
18804;SDS011;9530;48.930;9.526;2022-09-12T14:18:51;1.37;;;1.00;;
18804;SDS011;9530;48.930;9.526;2022-09-12T14:21:22;1.17;;;1.07;;
18804;SDS011;9530;48.930;9.526;2022-09-12T14:23:59;1.30;;;1.10;;
18804;SDS011;9530;48.930;9.526;2022-09-12T14:26:27;1.33;;;0.90;;
18804;SDS011;9530;48.930;9.526;2022-09-12T14:28:59;2.80;;;1.20;;
18804;SDS011;9530;48.930;9.526;2022-09-12T14:31:30;1.00;;;0.90;;
18804;SDS011;9530;48.930;9.526;2022-09-12T14:34:07;2.07;;;1.20;;
18804;SDS011;9530;48.930;9.526;2022-09-12T14:36:36;4.93;;;1.20;;
18804;SDS011;9530;48.930;9.526;2022-09-12T14:39:14;2.27;;;1.10;;
18804;SDS011;9530;48.930;9.526;2022-09-12T14:41:48;1.57;;;1.00;;
18804;SDS011;9530;48.930;9.526;2022-09-12T14:44:19;2.17;;;1.10;;
18804;SDS011;9530;48.930;9.526;2022-09-12T14:46:49;1.50;;;1.00;;
18804;SDS011;9530;48.930;9.526;2022-09-12T14:49:17;1.20;;;1.10;;
18804;SDS011;9530;48.930;9.526;2022-09-12T14:51:52;1.23;;;1.03;;
18804;SDS011;9530;48.930;9.526;2022-09-12T14:54:33;1.13;;;0.90;;
18804;SDS011;9530;48.930;9.526;2022-09-12T14:57:03;1.70;;;1.10;;
18804;SDS011;9530;48.930;9.526;2022-09-12T14:59:37;1.10;;;1.00;;
18804;SDS011;9530;48.930;9.526;2022-09-12T15:02:17;2.97;;;1.20;;
18804;SDS011;9530;48.930;9.526;2022-09-12T15:04:50;1.10;;;1.00;;
18804;SDS011;9530;48.930;9.526;2022-09-12T15:07:20;1.60;;;1.30;;
18804;SDS011;9530;48.930;9.526;2022-09-12T15:09:56;2.70;;;1.10;;
18804;SDS011;9530;48.930;9.526;2022-09-12T15:12:24;2.23;;;1.00;;
18804;SDS011;9530;48.930;9.526;2022-09-12T15:14:52;1.40;;;1.10;;
18804;SDS011;9530;48.930;9.526;2022-09-12T15:17:23;1.70;;;1.23;;
18804;SDS011;9530;48.930;9.526;2022-09-12T15:19:49;1.77;;;1.20;;
18804;SDS011;9530;48.930;9.526;2022-09-12T15:22:16;2.60;;;1.10;;
18804;SDS011;9530;48.930;9.526;2022-09-12T15:24:44;1.70;;;1.23;;
18804;SDS011;9530;48.930;9.526;2022-09-12T15:27:10;1.10;;;1.00;;
18804;SDS011;9530;48.930;9.526;2022-09-12T15:29:37;2.03;;;1.30;;
18804;SDS011;9530;48.930;9.526;2022-09-12T15:32:05;1.27;;;1.10;;
18804;SDS011;9530;48.930;9.526;2022-09-12T15:34:47;1.37;;;1.07;;
18804;SDS011;9530;48.930;9.526;2022-09-12T15:37:14;2.13;;;1.23;;
18804;SDS011;9530;48.930;9.526;2022-09-12T15:39:42;1.20;;;1.00;;
18804;SDS011;9530;48.930;9.526;2022-09-12T15:42:10;2.43;;;0.90;;
18804;SDS011;9530;48.930;9.526;2022-09-12T15:44:38;1.67;;;1.10;;
18804;SDS011;9530;48.930;9.526;2022-09-12T15:47:07;1.30;;;1.10;;
18804;SDS011;9530;48.930;9.526;2022-09-12T15:49:36;4.70;;;2.10;;